Chanute, KS

4:39 AM CST on February 07, 2016 (GMT -0600)
Chanute Martin Johnson | | Change Station
CLOSE
Current Station
Airport
Location: Chanute,
Elevation: 1001 ft
Nearby Weather Stations

Elev 1001 ft 37.67 °N, 95.48 °W | Updated 47 minutes ago

Clear
Clear
37 °F
Feels Like 29 °F
N
13
Wind Variable Wind from SSW

Today
High -- | Low -- °F
--% Chance of Precip.
Yesterday
High -- | Low -- °F
Precip. -- in
Pressure 30.09 in
Visibility 10.0 miles
Clouds Clear
Windchill 29 °F
Dew Point 27 °F
Humidity 67%
Rainfall 0.00 in
Snow Depth Not available.
7:20 AM 5:51 PM
Waning Crescent, 2% visible
METAR KCNU 070952Z AUTO 21011KT 10SM CLR 03/M03 A3008 RMK AO2 SLP188 T00281028
Pressure 30.09 in
Visibility 10.0 miles
Clouds Clear
Windchill 29 °F
Dew Point 27 °F
Humidity 67%
Rainfall 0.00 in
Snow Depth Not available.
7:20 AM 5:51 PM
Waning Crescent, 2% visible
METAR KCNU 070952Z AUTO 21011KT 10SM CLR 03/M03 A3008 RMK AO2 SLP188 T00281028

10-Day Weather Forecast

Almanac

Astronomy

Feb. 07, 2016 Rise Set
Actual Time
Civil Twilight
Nautical Twilight
Astronomical Twilight
Moon
Length of Visible Light
Length of Day
Tomorrow will be .
, % of the Moon is Illuminated

Today's Extremes

State Highs State Lows

Community

WunderPhotos

Upload Photos

1,891,171 photos uploaded!

WunderBlog® & News

Nearby

Air Quality

  Air Quality AQ Index Pollutant
Not available.

Snow Depth

Station Depth Elevation

Earthquake Activity

City Distance Mag. Time & Date
Minimum magnitude displayed is 2.5.

Coastal Water Temperatures

Place Temperature

Stations

Nearby Weather Stations

Station Location Temp. Windchill Dew Point Humidity Wind Precip. Elev Updated Type
                   

Watches & Warnings

There are currently no watches in effect.